Time;durP1;ratioP1;P1;durP2;ratioP2;P2;SDS_P1;SDS_P2;PMS_P1;PMS_P2;Temp;Humidity;BMP_temperature;BMP_pressure;BME280_temperature;BME280_humidity;BME280_pressure;Samples;Min_cycle;Max_cycle;Signal;HPM_P1;HPM_P2
2021/12/14 00:00:55;;;;;;;29.87;20.23;;;9.50;1.00;;;;;;6127661;23;20600;-78
2021/12/14 00:03:26;;;;;;;30.63;22.00;;;9.50;1.00;;;;;;6127124;23;20411;-77
2021/12/14 00:05:55;;;;;;;27.30;21.07;;;9.50;1.00;;;;;;6125407;23;20431;-78
2021/12/14 00:08:23;;;;;;;30.83;21.50;;;9.40;1.00;;;;;;6121419;23;20414;-77
2021/12/14 00:11:13;;;;;;;25.10;19.37;;;9.40;1.00;;;;;;6129666;23;21034;-79
2021/12/14 00:13:53;;;;;;;29.30;20.43;;;9.40;1.00;;;;;;6126361;23;21237;-78
2021/12/14 00:16:20;;;;;;;29.00;21.10;;;9.40;1.00;;;;;;6125524;23;20368;-78
2021/12/14 00:18:48;;;;;;;27.90;21.23;;;9.40;1.00;;;;;;6119196;23;20881;-78
2021/12/14 00:21:20;;;;;;;29.80;23.30;;;9.40;1.00;;;;;;6125033;23;20407;-79
2021/12/14 00:24:09;;;;;;;28.20;21.83;;;9.40;1.00;;;;;;6125013;23;20478;-79
2021/12/14 00:26:38;;;;;;;28.58;21.17;;;9.40;1.00;;;;;;6125505;23;20418;-78
2021/12/14 00:29:07;;;;;;;30.93;20.63;;;9.30;1.00;;;;;;6128779;23;20247;-78
2021/12/14 00:31:36;;;;;;;30.00;21.27;;;9.30;1.00;;;;;;6124039;23;21255;-79
2021/12/14 00:34:06;;;;;;;27.95;21.42;;;9.30;1.00;;;;;;6118390;23;20930;-79
2021/12/14 00:36:35;;;;;;;29.50;21.40;;;9.20;1.00;;;;;;6115680;23;20983;-79
2021/12/14 00:39:06;;;;;;;29.27;22.37;;;9.20;1.00;;;;;;6114619;23;21491;-81
2021/12/14 00:41:36;;;;;;;27.77;21.70;;;9.20;1.00;;;;;;6119421;23;20514;-78
2021/12/14 00:44:03;;;;;;;26.50;20.90;;;9.20;1.00;;;;;;6143136;23;20187;-79
2021/12/14 00:46:30;;;;;;;27.23;20.73;;;9.20;1.00;;;;;;6126638;23;21208;-80
2021/12/14 00:48:58;;;;;;;29.93;21.10;;;9.20;1.00;;;;;;6120072;23;20404;-81
2021/12/14 00:51:28;;;;;;;27.13;20.60;;;9.10;1.00;;;;;;6126191;23;20372;-78
2021/12/14 00:53:57;;;;;;;28.83;21.87;;;9.20;1.00;;;;;;6114394;23;20418;-80
2021/12/14 00:56:24;;;;;;;25.58;18.92;;;9.20;1.00;;;;;;6119148;23;20403;-80
2021/12/14 00:58:50;;;;;;;23.80;19.20;;;9.20;1.00;;;;;;6117123;23;20296;-81
2021/12/14 01:01:22;;;;;;;27.10;20.43;;;9.20;1.00;;;;;;6120469;23;20432;-78
2021/12/14 01:03:52;;;;;;;25.00;19.43;;;9.20;1.00;;;;;;6122328;23;20493;-81
2021/12/14 01:06:20;;;;;;;22.55;18.92;;;9.20;1.00;;;;;;6122133;23;20604;-78
2021/12/14 01:08:50;;;;;;;27.63;19.58;;;9.20;1.00;;;;;;6130855;23;20223;-77
2021/12/14 01:11:21;;;;;;;26.35;19.83;;;9.20;1.00;;;;;;6129811;23;20251;-79
2021/12/14 01:13:57;;;;;;;28.35;22.13;;;9.20;1.00;;;;;;6124904;23;20235;-79
2021/12/14 01:16:33;;;;;;;26.30;20.23;;;9.20;1.00;;;;;;6125704;23;20190;-80
2021/12/14 01:19:13;;;;;;;26.48;20.25;;;9.20;1.00;;;;;;6123042;23;20414;-79
2021/12/14 01:21:58;;;;;;;29.77;20.53;;;9.20;1.00;;;;;;6120977;23;20661;-79
2021/12/14 01:24:53;;;;;;;27.08;19.88;;;9.20;1.00;;;;;;6113694;23;20428;-78
2021/12/14 01:27:24;;;;;;;26.00;19.90;;;9.10;1.00;;;;;;6117537;23;20201;-79
2021/12/14 01:29:54;;;;;;;24.80;20.65;;;9.10;1.00;;;;;;6110365;23;20386;-78
2021/12/14 01:32:25;;;;;;;25.33;19.20;;;9.20;1.00;;;;;;6120127;23;20194;-80
2021/12/14 01:34:52;;;;;;;28.10;20.60;;;9.10;1.00;;;;;;6123393;23;20609;-81
2021/12/14 01:37:24;;;;;;;26.33;20.92;;;9.10;1.00;;;;;;6137699;23;20463;-78
2021/12/14 01:40:04;;;;;;;25.27;21.02;;;9.10;1.00;;;;;;6135744;23;20666;-80
2021/12/14 01:42:34;;;;;;;23.73;19.93;;;9.10;1.00;;;;;;6114504;23;20254;-81
2021/12/14 01:45:05;;;;;;;28.25;20.48;;;9.20;1.00;;;;;;6119509;23;20375;-79
2021/12/14 01:47:36;;;;;;;24.90;20.47;;;9.10;1.00;;;;;;6127393;23;20204;-78
2021/12/14 01:50:05;;;;;;;24.23;19.13;;;9.10;1.00;;;;;;6125624;23;20479;-78
2021/12/14 01:52:34;;;;;;;23.85;20.10;;;9.10;1.00;;;;;;6124183;23;20353;-79
2021/12/14 01:55:09;;;;;;;27.07;20.10;;;9.10;1.00;;;;;;6123539;23;20655;-80
2021/12/14 01:57:36;;;;;;;23.20;18.40;;;9.00;1.00;;;;;;6135659;23;20446;-79
2021/12/14 02:00:07;;;;;;;26.42;19.45;;;9.00;1.00;;;;;;6137103;23;20208;-77
2021/12/14 02:02:41;;;;;;;23.83;18.23;;;9.00;1.00;;;;;;6135774;23;20309;-80
2021/12/14 02:05:16;;;;;;;26.20;20.67;;;9.00;1.00;;;;;;6134286;23;20478;-78
2021/12/14 02:07:45;;;;;;;26.00;19.13;;;9.00;1.00;;;;;;6133611;23;20451;-79
2021/12/14 02:10:16;;;;;;;26.52;19.58;;;9.00;1.00;;;;;;6138432;23;20370;-78
2021/12/14 02:12:45;;;;;;;25.88;19.25;;;9.00;1.00;;;;;;6124056;23;20190;-81
2021/12/14 02:15:16;;;;;;;22.97;19.30;;;9.00;1.00;;;;;;6118853;23;20889;-79
2021/12/14 02:17:43;;;;;;;23.05;17.33;;;9.00;1.00;;;;;;6118401;23;20499;-79
2021/12/14 02:20:12;;;;;;;23.35;17.70;;;9.00;1.00;;;;;;6119431;23;20237;-80
2021/12/14 02:22:41;;;;;;;24.70;18.45;;;9.00;1.00;;;;;;6116816;23;20674;-79
2021/12/14 02:25:09;;;;;;;21.63;18.13;;;9.00;1.00;;;;;;6121738;23;20300;-79
2021/12/14 02:27:39;;;;;;;24.85;17.63;;;9.10;1.00;;;;;;6121738;23;20203;-80
2021/12/14 02:30:09;;;;;;;20.02;17.02;;;9.10;1.00;;;;;;6127176;23;21000;-81
2021/12/14 02:32:36;;;;;;;23.90;18.17;;;9.00;1.00;;;;;;6115795;23;20294;-81
2021/12/14 02:35:06;;;;;;;22.20;17.93;;;9.00;1.00;;;;;;6116305;23;20209;-81
2021/12/14 02:37:42;;;;;;;23.23;16.63;;;8.90;1.00;;;;;;6119488;23;20414;-81
2021/12/14 02:40:19;;;;;;;23.30;17.17;;;8.90;1.00;;;;;;6126896;23;20224;-79
2021/12/14 02:42:48;;;;;;;26.73;16.80;;;8.90;1.00;;;;;;6125104;23;20403;-79
2021/12/14 02:45:15;;;;;;;23.02;18.08;;;8.90;1.00;;;;;;6117779;23;20195;-81
2021/12/14 02:47:42;;;;;;;22.10;16.30;;;8.90;1.00;;;;;;6112628;23;20196;-81
2021/12/14 02:50:12;;;;;;;21.98;16.60;;;8.90;1.00;;;;;;6115164;23;21135;-80
2021/12/14 02:52:40;;;;;;;21.48;15.60;;;8.90;1.00;;;;;;6133324;23;20702;-79
2021/12/14 02:55:12;;;;;;;20.07;16.07;;;8.90;1.00;;;;;;6122581;23;20192;-81
2021/12/14 02:57:43;;;;;;;20.55;15.35;;;8.90;1.00;;;;;;6109600;23;20505;-80
2021/12/14 03:00:14;;;;;;;20.13;15.05;;;9.00;1.00;;;;;;6125827;23;20195;-80
2021/12/14 03:02:41;;;;;;;23.05;17.52;;;9.00;1.00;;;;;;6127061;23;20211;-79
2021/12/14 03:05:11;;;;;;;19.43;15.70;;;9.00;1.00;;;;;;6126629;23;21116;-79
2021/12/14 03:07:44;;;;;;;17.07;14.10;;;9.00;1.00;;;;;;6125913;23;20431;-79
2021/12/14 03:10:33;;;;;;;21.48;15.75;;;8.90;1.00;;;;;;6122568;23;20406;-80
2021/12/14 03:13:03;;;;;;;17.52;14.55;;;8.90;1.00;;;;;;6127913;23;20271;-80
2021/12/14 03:15:34;;;;;;;18.23;14.77;;;8.90;1.00;;;;;;6127876;23;20242;-81
2021/12/14 03:18:08;;;;;;;20.15;15.88;;;8.90;1.00;;;;;;6128882;23;20227;-81
2021/12/14 03:20:38;;;;;;;18.20;13.85;;;8.80;1.00;;;;;;6115885;23;20243;-82
2021/12/14 03:23:08;;;;;;;19.45;14.57;;;8.80;1.00;;;;;;6112186;23;20197;-81
2021/12/14 03:25:38;;;;;;;18.40;15.20;;;8.80;1.00;;;;;;6113204;23;20195;-81
2021/12/14 03:28:05;;;;;;;18.90;14.23;;;8.80;1.00;;;;;;6105724;23;20232;-79
2021/12/14 03:30:36;;;;;;;17.13;13.80;;;8.90;1.00;;;;;;6113760;23;20406;-81
2021/12/14 03:33:06;;;;;;;18.15;13.75;;;8.80;1.00;;;;;;6113513;23;20184;-80
2021/12/14 03:35:41;;;;;;;18.02;12.43;;;8.80;1.00;;;;;;6117836;23;20202;-81
2021/12/14 03:38:15;;;;;;;16.40;13.13;;;8.80;1.00;;;;;;6112989;23;20200;-80
2021/12/14 03:40:43;;;;;;;15.88;13.60;;;8.80;1.00;;;;;;6115367;23;20200;-80
2021/12/14 03:43:12;;;;;;;15.35;13.27;;;8.70;1.00;;;;;;6115176;23;20217;-81
2021/12/14 03:45:40;;;;;;;17.25;13.68;;;8.70;1.00;;;;;;6131651;23;20276;-79
2021/12/14 03:48:06;;;;;;;17.45;14.55;;;8.60;1.00;;;;;;6138715;23;20205;-79
2021/12/14 03:50:40;;;;;;;17.63;13.25;;;8.60;1.00;;;;;;6121222;23;20228;-82
2021/12/14 03:53:09;;;;;;;17.75;14.23;;;8.60;1.00;;;;;;6116952;23;20376;-82
2021/12/14 03:55:39;;;;;;;21.77;14.13;;;8.70;1.00;;;;;;6117505;23;20196;-79
2021/12/14 03:58:09;;;;;;;17.20;12.65;;;8.70;1.00;;;;;;6117416;23;20197;-80
2021/12/14 04:00:40;;;;;;;16.48;13.75;;;8.60;1.00;;;;;;6127388;23;20208;-80
2021/12/14 04:03:11;;;;;;;17.90;13.63;;;8.60;1.00;;;;;;6134321;23;20221;-80
2021/12/14 04:05:38;;;;;;;15.20;11.52;;;8.60;1.00;;;;;;6132720;23;20173;-79
2021/12/14 04:08:05;;;;;;;15.98;12.98;;;8.60;1.00;;;;;;6114842;23;20251;-80
2021/12/14 04:10:36;;;;;;;16.67;12.63;;;8.70;1.00;;;;;;6119057;23;20265;-79
2021/12/14 04:13:03;;;;;;;20.25;13.63;;;8.70;1.00;;;;;;6129068;23;20248;-79
2021/12/14 04:15:30;;;;;;;18.88;13.73;;;8.70;1.00;;;;;;6133389;23;20237;-80
2021/12/14 04:17:57;;;;;;;18.75;13.52;;;8.70;1.00;;;;;;6122842;23;21353;-81
2021/12/14 04:20:28;;;;;;;17.08;12.70;;;8.70;1.00;;;;;;6123245;23;20327;-81
2021/12/14 04:22:56;;;;;;;17.23;12.60;;;8.60;1.00;;;;;;6122061;23;20663;-82
2021/12/14 04:25:27;;;;;;;17.00;12.88;;;8.60;1.00;;;;;;6121483;23;20491;-81
2021/12/14 04:27:56;;;;;;;17.58;13.13;;;8.60;1.00;;;;;;6121573;23;20209;-80
2021/12/14 04:30:28;;;;;;;18.20;12.90;;;8.60;1.00;;;;;;6122919;23;20195;-81
2021/12/14 04:32:58;;;;;;;16.70;13.25;;;8.60;1.00;;;;;;6121343;23;20299;-81
2021/12/14 04:35:25;;;;;;;17.17;12.82;;;8.60;1.00;;;;;;6119534;23;20235;-79
2021/12/14 04:37:56;;;;;;;18.38;13.50;;;8.50;1.00;;;;;;6134722;23;20199;-80
2021/12/14 04:51:53;;;;;;;16.55;12.80;;;8.50;1.00;;;;;;6140616;23;20195;-80
2021/12/14 04:54:17;;;;;;;21.05;14.05;;;8.50;1.00;;;;;;6137622;23;20215;-81
2021/12/14 04:56:46;;;;;;;19.17;13.60;;;8.50;1.00;;;;;;6125917;23;20211;-80
2021/12/14 04:59:19;;;;;;;20.40;15.57;;;8.50;1.00;;;;;;6131012;23;20832;-79
2021/12/14 05:01:48;;;;;;;15.15;13.50;;;8.50;1.00;;;;;;6148728;23;20224;-80
2021/12/14 05:04:18;;;;;;;19.25;13.65;;;8.40;1.00;;;;;;6148566;23;20191;-80
2021/12/14 05:06:48;;;;;;;20.50;14.73;;;8.50;1.00;;;;;;6145824;23;20172;-79
2021/12/14 05:09:21;;;;;;;21.45;13.40;;;8.50;1.00;;;;;;6147716;23;20693;-84
2021/12/14 05:11:48;;;;;;;21.17;14.55;;;8.50;1.00;;;;;;6143208;23;20188;-84
2021/12/14 05:14:16;;;;;;;19.30;14.25;;;8.50;1.00;;;;;;6127220;23;20299;-84
2021/12/14 05:16:43;;;;;;;18.13;14.23;;;8.50;1.00;;;;;;6125705;23;20198;-84
2021/12/14 05:19:11;;;;;;;19.05;12.65;;;8.40;1.00;;;;;;6123277;23;20742;-84
2021/12/14 05:21:42;;;;;;;17.88;13.00;;;8.40;1.00;;;;;;6125192;23;20213;-85
2021/12/14 05:24:11;;;;;;;17.90;13.93;;;8.50;1.00;;;;;;6119249;23;20207;-85
2021/12/14 05:26:38;;;;;;;17.63;12.85;;;8.50;1.00;;;;;;6117004;23;20670;-83
2021/12/14 05:29:07;;;;;;;15.75;13.93;;;8.40;1.00;;;;;;6118924;23;20207;-82
2021/12/14 05:31:43;;;;;;;18.00;13.15;;;8.40;1.00;;;;;;6117725;23;20924;-81
2021/12/14 05:34:10;;;;;;;18.13;13.07;;;8.40;1.00;;;;;;6122472;23;20206;-80
2021/12/14 05:36:37;;;;;;;17.73;13.60;;;8.40;1.00;;;;;;6124823;23;20914;-82
2021/12/14 05:39:17;;;;;;;19.77;13.93;;;8.40;1.00;;;;;;6117830;23;20241;-82
2021/12/14 05:44:40;;;;;;;18.02;12.80;;;8.50;1.00;;;;;;6094502;23;21050;-80
2021/12/14 05:47:11;;;;;;;20.58;13.80;;;8.50;1.00;;;;;;6134805;23;20201;-80
2021/12/14 05:49:41;;;;;;;18.30;13.95;;;8.50;1.00;;;;;;6127278;23;20225;-80
2021/12/14 05:52:12;;;;;;;21.05;13.50;;;8.40;1.00;;;;;;6119013;23;21351;-81
2021/12/14 05:54:39;;;;;;;19.15;12.70;;;8.40;1.00;;;;;;6121084;23;20192;-80
2021/12/14 05:57:08;;;;;;;15.65;12.73;;;8.50;1.00;;;;;;6122283;23;21358;-80
2021/12/14 05:59:36;;;;;;;19.35;13.32;;;8.50;1.00;;;;;;6118131;23;21152;-79
2021/12/14 06:02:07;;;;;;;18.83;14.32;;;8.50;1.00;;;;;;6112209;23;20218;-79
2021/12/14 06:04:38;;;;;;;18.20;14.10;;;8.60;1.00;;;;;;6115337;23;20973;-80
2021/12/14 06:07:06;;;;;;;18.10;12.80;;;8.60;1.00;;;;;;6116364;23;20237;-79
2021/12/14 06:09:36;;;;;;;17.33;12.95;;;8.60;1.00;;;;;;6108421;23;20422;-80
2021/12/14 06:12:06;;;;;;;19.45;12.50;;;8.70;1.00;;;;;;6115199;23;20196;-78
2021/12/14 06:14:40;;;;;;;16.50;11.25;;;8.60;1.00;;;;;;6132747;23;20227;-85
2021/12/14 06:17:08;;;;;;;19.95;13.95;;;8.60;1.00;;;;;;6135772;23;20186;-84
2021/12/14 06:19:38;;;;;;;17.65;13.88;;;8.60;1.00;;;;;;6130950;23;20246;-84
2021/12/14 06:22:09;;;;;;;17.95;13.10;;;8.60;1.00;;;;;;6132096;23;20201;-84
2021/12/14 06:24:38;;;;;;;16.80;11.77;;;8.70;1.00;;;;;;6126105;23;20188;-84
2021/12/14 06:27:09;;;;;;;16.75;11.88;;;8.60;1.00;;;;;;6125996;23;20411;-81
2021/12/14 06:29:38;;;;;;;15.10;12.25;;;8.60;1.00;;;;;;6125181;23;20647;-81
2021/12/14 06:32:07;;;;;;;18.42;14.15;;;8.60;1.00;;;;;;6120370;23;20211;-80
2021/12/14 06:34:35;;;;;;;20.88;14.98;;;8.60;1.00;;;;;;6123111;23;20203;-81
2021/12/14 06:38:05;;;;;;;15.30;12.73;;;8.50;1.00;;;;;;6122746;23;20274;-85
2021/12/14 06:40:35;;;;;;;16.38;12.15;;;8.40;1.00;;;;;;6123768;23;20205;-82
2021/12/14 06:43:05;;;;;;;19.48;13.82;;;8.40;1.00;;;;;;6129058;23;20818;-84
2021/12/14 06:45:34;;;;;;;17.02;12.60;;;8.40;1.00;;;;;;6127556;23;20196;-82
2021/12/14 06:48:05;;;;;;;17.92;12.90;;;8.40;1.00;;;;;;6127100;23;20201;-85
2021/12/14 06:50:40;;;;;;;17.75;13.10;;;8.50;1.00;;;;;;6134131;23;20217;-83
2021/12/14 06:53:10;;;;;;;17.30;13.93;;;8.50;1.00;;;;;;6138321;23;20184;-86
2021/12/14 06:55:38;;;;;;;15.40;11.02;;;8.50;1.00;;;;;;6129912;23;20734;-88
2021/12/14 06:58:07;;;;;;;19.25;12.85;;;8.50;1.00;;;;;;6129471;23;20219;-81
2021/12/14 07:00:34;;;;;;;16.00;13.07;;;8.50;1.00;;;;;;6120374;23;20977;-82
2021/12/14 07:03:01;;;;;;;16.05;14.35;;;8.50;1.00;;;;;;6118882;23;21087;-81
2021/12/14 07:05:30;;;;;;;15.30;12.27;;;8.50;1.00;;;;;;6119438;23;20194;-81
2021/12/14 07:07:58;;;;;;;17.75;13.48;;;8.50;1.00;;;;;;6118309;23;20204;-80
2021/12/14 07:10:25;;;;;;;17.63;13.20;;;8.50;1.00;;;;;;6117206;23;20736;-80
2021/12/14 07:12:53;;;;;;;18.07;13.07;;;8.40;1.00;;;;;;6119365;23;20223;-83
2021/12/14 07:15:23;;;;;;;19.02;13.90;;;8.40;1.00;;;;;;6123134;23;20433;-79
2021/12/14 07:17:54;;;;;;;18.02;13.07;;;8.50;1.00;;;;;;6119173;23;20607;-79
2021/12/14 07:20:29;;;;;;;20.23;14.55;;;8.50;1.00;;;;;;6129106;23;20190;-79
2021/12/14 07:23:00;;;;;;;20.75;14.68;;;8.50;1.00;;;;;;6123257;23;20274;-81
2021/12/14 07:25:30;;;;;;;17.50;13.93;;;8.50;1.00;;;;;;6120105;23;20186;-81
2021/12/14 07:27:58;;;;;;;16.60;12.43;;;8.50;1.00;;;;;;6117359;23;20415;-79
2021/12/14 07:30:30;;;;;;;17.00;14.23;;;8.50;1.00;;;;;;6114075;23;20203;-79
2021/12/14 07:33:01;;;;;;;17.77;13.60;;;8.50;1.00;;;;;;6118505;23;20287;-77
2021/12/14 07:35:38;;;;;;;19.63;12.53;;;8.50;1.00;;;;;;6117577;23;20278;-79
2021/12/14 07:38:33;;;;;;;16.67;12.13;;;8.50;1.00;;;;;;6121406;23;20412;-80
2021/12/14 07:41:07;;;;;;;18.88;14.00;;;8.50;1.00;;;;;;6105841;23;20213;-81
2021/12/14 07:43:37;;;;;;;17.73;12.57;;;8.50;1.00;;;;;;6119073;23;20956;-81
2021/12/14 07:46:19;;;;;;;16.80;14.20;;;8.50;1.00;;;;;;6125324;23;20271;-83
2021/12/14 07:48:49;;;;;;;18.63;12.13;;;8.50;1.00;;;;;;6128023;23;20206;-83
2021/12/14 07:51:18;;;;;;;19.37;13.43;;;8.50;1.00;;;;;;6138303;23;20812;-83
2021/12/14 07:53:50;;;;;;;17.23;13.55;;;8.50;1.00;;;;;;6131163;23;20420;-83
2021/12/14 07:56:28;;;;;;;18.02;12.10;;;8.50;1.00;;;;;;6115125;23;20667;-84
2021/12/14 07:58:58;;;;;;;18.13;13.38;;;8.50;1.00;;;;;;6121926;23;20277;-84
2021/12/14 08:01:26;;;;;;;16.73;12.50;;;8.50;1.00;;;;;;6120181;23;20261;-83
2021/12/14 08:04:03;;;;;;;15.80;12.10;;;8.60;1.00;;;;;;6127001;23;20238;-81
2021/12/14 08:06:44;;;;;;;14.85;12.05;;;8.60;1.00;;;;;;6120776;23;20483;-84
2021/12/14 08:09:18;;;;;;;18.42;13.88;;;8.60;1.00;;;;;;6120078;23;20303;-83
2021/12/14 08:11:48;;;;;;;15.73;12.83;;;8.60;1.00;;;;;;6122199;23;20189;-82
2021/12/14 08:14:23;;;;;;;16.10;12.52;;;8.60;1.00;;;;;;6123617;23;20394;-83
2021/12/14 08:16:54;;;;;;;15.88;14.05;;;8.60;1.00;;;;;;6130664;23;20194;-82
2021/12/14 08:19:33;;;;;;;16.33;12.00;;;8.60;1.00;;;;;;6141304;23;20284;-81
2021/12/14 08:22:02;;;;;;;17.75;12.85;;;8.60;1.00;;;;;;6139896;23;20196;-82
2021/12/14 08:24:30;;;;;;;18.23;13.27;;;8.60;1.00;;;;;;6140244;23;20679;-81
2021/12/14 08:27:00;;;;;;;17.35;14.65;;;8.70;1.00;;;;;;6139112;23;20249;-81
2021/12/14 08:29:30;;;;;;;19.70;14.48;;;8.80;1.00;;;;;;6142077;23;20172;-83
2021/12/14 08:31:59;;;;;;;18.40;14.40;;;8.80;1.00;;;;;;6137363;23;20184;-81
2021/12/14 08:34:28;;;;;;;16.48;13.43;;;8.80;1.00;;;;;;6138075;23;20212;-81
2021/12/14 08:37:01;;;;;;;17.48;12.45;;;8.80;1.00;;;;;;6138949;23;20652;-83
2021/12/14 08:39:32;;;;;;;15.60;13.55;;;8.80;1.00;;;;;;6141072;23;20178;-80
2021/12/14 08:42:11;;;;;;;16.65;12.30;;;8.80;1.00;;;;;;6140086;23;20181;-81
2021/12/14 08:44:41;;;;;;;26.83;21.30;;;8.70;1.00;;;;;;6138286;23;20249;-82
2021/12/14 08:47:14;;;;;;;16.63;13.70;;;8.80;1.00;;;;;;6141015;23;20451;-82
2021/12/14 08:49:43;;;;;;;17.92;13.55;;;8.80;1.00;;;;;;6140435;23;20185;-81
2021/12/14 08:52:12;;;;;;;20.30;13.40;;;8.80;1.00;;;;;;6137670;23;20192;-83
2021/12/14 08:54:41;;;;;;;16.60;13.20;;;8.70;1.00;;;;;;6128493;23;20200;-80
2021/12/14 08:57:13;;;;;;;17.52;13.00;;;8.70;1.00;;;;;;6133714;23;20195;-80
2021/12/14 08:59:44;;;;;;;14.57;12.57;;;8.70;1.00;;;;;;6131361;23;20178;-80
2021/12/14 09:02:14;;;;;;;15.32;11.73;;;8.70;1.00;;;;;;6124064;23;20218;-83
2021/12/14 09:04:43;;;;;;;14.13;12.52;;;8.80;1.00;;;;;;6124636;23;20182;-82
2021/12/14 09:07:15;;;;;;;15.43;12.25;;;8.80;1.00;;;;;;6120612;23;20197;-84
2021/12/14 09:09:43;;;;;;;16.83;13.30;;;8.80;1.00;;;;;;6130309;23;20197;-81
2021/12/14 09:12:15;;;;;;;15.23;12.40;;;8.80;1.00;;;;;;6134944;23;20386;-80
2021/12/14 09:14:44;;;;;;;15.75;11.68;;;8.90;1.00;;;;;;6138610;23;20192;-82
2021/12/14 09:17:12;;;;;;;14.82;11.98;;;8.80;1.00;;;;;;6141697;23;20195;-81
2021/12/14 09:19:42;;;;;;;19.50;13.33;;;8.80;1.00;;;;;;6145686;23;20202;-79
2021/12/14 09:22:22;;;;;;;15.52;12.57;;;8.80;1.00;;;;;;6145132;23;20475;-81
2021/12/14 09:24:50;;;;;;;16.08;13.20;;;8.80;1.00;;;;;;6147483;23;20186;-80
2021/12/14 09:27:21;;;;;;;18.57;13.27;;;8.80;1.00;;;;;;6136387;23;21109;-80
2021/12/14 09:29:48;;;;;;;14.97;12.33;;;8.90;1.00;;;;;;6142660;23;20373;-81
2021/12/14 09:32:22;;;;;;;16.05;12.52;;;8.90;1.00;;;;;;6132579;23;20444;-80
2021/12/14 09:34:49;;;;;;;17.15;11.63;;;8.90;1.00;;;;;;6133221;23;21239;-84
2021/12/14 09:37:17;;;;;;;16.70;12.90;;;8.90;1.00;;;;;;6128332;23;20290;-78
2021/12/14 09:39:48;;;;;;;20.60;15.10;;;8.90;1.00;;;;;;6133874;23;20444;-83
2021/12/14 09:42:20;;;;;;;16.93;13.10;;;8.90;1.00;;;;;;6122035;23;20457;-84
2021/12/14 09:44:51;;;;;;;17.73;14.35;;;8.90;1.00;;;;;;6127494;23;21531;-83
2021/12/14 09:47:19;;;;;;;16.85;12.88;;;9.00;1.00;;;;;;6127721;23;20222;-84
2021/12/14 09:49:49;;;;;;;15.33;12.53;;;9.10;1.00;;;;;;6127706;23;20286;-83
2021/12/14 09:52:20;;;;;;;14.45;11.98;;;9.10;1.00;;;;;;6127623;23;20438;-85
2021/12/14 09:54:48;;;;;;;16.77;13.20;;;9.20;1.00;;;;;;6129562;23;20274;-85
2021/12/14 09:57:20;;;;;;;16.10;13.27;;;9.10;1.00;;;;;;6121517;23;20352;-85
2021/12/14 09:59:48;;;;;;;16.10;13.10;;;9.10;1.00;;;;;;6131155;23;20425;-83
2021/12/14 10:02:18;;;;;;;15.83;13.43;;;9.20;1.00;;;;;;6130752;23;20468;-84
2021/12/14 10:04:50;;;;;;;14.70;12.07;;;9.20;1.00;;;;;;6130736;23;20394;-84
2021/12/14 10:07:17;;;;;;;15.60;12.30;;;9.20;1.00;;;;;;6124620;23;20242;-83
2021/12/14 10:09:48;;;;;;;16.07;12.43;;;9.20;1.00;;;;;;6134242;23;20399;-86
2021/12/14 10:12:49;;;;;;;16.08;13.20;;;9.20;1.00;;;;;;6127429;23;20438;-85
2021/12/14 10:15:26;;;;;;;18.38;14.00;;;9.20;1.00;;;;;;6130343;23;20194;-86
2021/12/14 10:17:55;;;;;;;16.60;13.93;;;9.10;1.00;;;;;;6125866;23;20196;-85
2021/12/14 10:20:25;;;;;;;17.02;14.35;;;9.10;1.00;;;;;;6131715;23;20716;-83
2021/12/14 10:22:52;;;;;;;14.68;11.65;;;9.00;1.00;;;;;;6142869;23;20219;-85
2021/12/14 10:25:22;;;;;;;14.32;11.80;;;9.00;1.00;;;;;;6135240;23;20490;-85
2021/12/14 10:27:53;;;;;;;13.05;10.98;;;9.10;1.00;;;;;;6133584;23;20274;-85
2021/12/14 10:30:24;;;;;;;15.13;11.35;;;9.00;1.00;;;;;;6130919;23;20807;-84
2021/12/14 10:32:51;;;;;;;15.25;12.80;;;9.00;1.00;;;;;;6135551;23;20230;-82
2021/12/14 10:35:23;;;;;;;21.30;15.80;;;9.10;1.00;;;;;;6136638;23;20253;-87
2021/12/14 10:37:56;;;;;;;15.10;13.40;;;9.10;1.00;;;;;;6128850;23;20196;-84
2021/12/14 10:43:15;;;;;;;14.70;12.10;;;9.20;1.00;;;;;;6128639;23;20194;-85
2021/12/14 10:45:47;;;;;;;19.65;13.23;;;9.10;1.00;;;;;;6133100;23;20222;-85
2021/12/14 10:48:14;;;;;;;16.05;12.07;;;9.10;1.00;;;;;;6124126;23;20225;-85
2021/12/14 10:50:42;;;;;;;14.80;12.10;;;9.20;1.00;;;;;;6126985;23;20236;-86
2021/12/14 10:53:10;;;;;;;15.23;11.85;;;9.20;1.00;;;;;;6123585;23;20421;-84
2021/12/14 10:55:42;;;;;;;13.83;11.23;;;9.20;1.00;;;;;;6125023;23;20199;-84
2021/12/14 10:58:10;;;;;;;17.60;13.30;;;9.20;1.00;;;;;;6128248;23;21411;-83
2021/12/14 11:00:43;;;;;;;15.75;12.02;;;9.20;1.00;;;;;;6123116;23;20414;-86
2021/12/14 11:03:12;;;;;;;15.10;12.60;;;9.30;1.00;;;;;;6125022;23;20206;-84
2021/12/14 11:05:44;;;;;;;18.73;13.83;;;9.30;1.00;;;;;;6128006;23;20380;-82
2021/12/14 11:08:21;;;;;;;19.53;11.90;;;9.40;1.00;;;;;;6135771;23;20420;-85
2021/12/14 11:10:48;;;;;;;16.93;13.10;;;9.50;1.00;;;;;;6132875;23;20586;-83
2021/12/14 11:13:15;;;;;;;21.80;13.43;;;9.70;1.00;;;;;;6126430;23;20406;-84
2021/12/14 11:15:52;;;;;;;18.77;12.67;;;9.70;1.00;;;;;;6125442;23;20404;-84
2021/12/14 11:18:21;;;;;;;19.00;13.93;;;9.80;1.00;;;;;;6128949;23;20416;-83
2021/12/14 11:20:51;;;;;;;14.53;12.17;;;9.80;1.00;;;;;;6127907;23;20359;-84
2021/12/14 11:23:21;;;;;;;16.77;13.00;;;9.70;1.00;;;;;;6144161;23;20370;-83
2021/12/14 11:25:58;;;;;;;16.30;12.43;;;9.70;1.00;;;;;;6131783;23;20455;-86
2021/12/14 11:28:31;;;;;;;15.63;12.07;;;9.60;1.00;;;;;;6125657;23;20213;-83
2021/12/14 11:31:05;;;;;;;16.70;13.55;;;9.60;1.00;;;;;;6129363;23;21270;-83
2021/12/14 11:33:35;;;;;;;13.32;11.90;;;9.60;1.00;;;;;;6135242;23;20179;-83
2021/12/14 11:36:11;;;;;;;17.73;12.93;;;9.60;1.00;;;;;;6137284;23;20199;-85
2021/12/14 11:38:42;;;;;;;16.13;12.33;;;9.60;1.00;;;;;;6132848;23;20403;-86
2021/12/14 11:41:28;;;;;;;13.77;11.90;;;9.70;1.00;;;;;;6126067;23;20377;-84
2021/12/14 11:43:59;;;;;;;15.20;12.20;;;9.80;1.00;;;;;;6138962;23;20181;-83
2021/12/14 11:46:31;;;;;;;17.67;12.13;;;9.70;1.00;;;;;;6127440;23;20403;-86
2021/12/14 11:49:00;;;;;;;17.83;13.00;;;9.80;1.00;;;;;;6128564;23;20564;-85
2021/12/14 11:51:30;;;;;;;14.20;12.10;;;9.90;1.00;;;;;;6128559;23;20427;-83
2021/12/14 11:53:59;;;;;;;20.20;12.20;;;10.00;1.00;;;;;;6126457;23;20432;-84
2021/12/14 11:56:29;;;;;;;22.70;14.23;;;10.20;1.00;;;;;;6123565;23;20424;-84
2021/12/14 11:58:58;;;;;;;13.40;10.87;;;10.40;1.00;;;;;;6130401;23;20407;-85
2021/12/14 12:01:29;;;;;;;15.33;11.20;;;10.30;1.00;;;;;;6129635;23;20364;-84
2021/12/14 12:03:59;;;;;;;16.23;12.43;;;10.30;1.00;;;;;;6127185;23;20434;-86
2021/12/14 12:06:47;;;;;;;22.23;12.87;;;10.30;1.00;;;;;;6127555;23;20396;-85
2021/12/14 12:09:31;;;;;;;24.93;13.50;;;10.40;1.00;;;;;;6135932;23;20406;-84
2021/12/14 12:12:07;;;;;;;16.60;12.60;;;10.40;1.00;;;;;;6142049;23;20406;-85
2021/12/14 12:14:37;;;;;;;23.47;14.27;;;10.30;1.00;;;;;;6132872;23;20714;-85
2021/12/14 12:17:15;;;;;;;13.70;11.30;;;10.40;1.00;;;;;;6134066;23;20986;-84
2021/12/14 12:19:56;;;;;;;22.97;12.23;;;10.50;1.00;;;;;;6134423;23;20392;-86
2021/12/14 12:22:25;;;;;;;13.90;10.77;;;10.50;1.00;;;;;;6132334;23;20423;-84
2021/12/14 12:24:54;;;;;;;15.03;11.70;;;10.60;1.00;;;;;;6135746;23;20533;-84
2021/12/14 12:27:32;;;;;;;19.07;11.10;;;10.70;1.00;;;;;;6149150;23;20395;-89
2021/12/14 12:30:29;;;;;;;14.63;10.27;;;10.80;1.00;;;;;;6111346;23;20422;-88
2021/12/14 12:33:29;;;;;;;14.90;10.53;;;10.80;1.00;;;;;;6145469;23;20431;-89
2021/12/14 12:36:13;;;;;;;15.20;10.47;;;10.80;1.00;;;;;;6140329;23;20424;-90
2021/12/14 12:38:45;;;;;;;12.73;10.80;;;10.70;1.00;;;;;;6116735;23;21650;-87
2021/12/14 12:41:41;;;;;;;12.83;10.77;;;10.70;1.00;;;;;;6121655;23;20364;-89
2021/12/14 12:47:02;;;;;;;17.87;11.73;;;10.70;1.00;;;;;;6110865;23;20929;-89
2021/12/14 12:49:35;;;;;;;16.63;12.13;;;10.60;1.00;;;;;;6131571;23;21144;-88
2021/12/14 12:52:09;;;;;;;13.17;10.93;;;10.50;1.00;;;;;;6102416;23;20407;-80
2021/12/14 12:54:46;;;;;;;14.60;11.67;;;10.40;1.00;;;;;;6121420;23;20396;-80
2021/12/14 12:57:37;;;;;;;15.90;11.20;;;10.40;1.00;;;;;;6129243;23;20446;-86
2021/12/14 13:00:37;;;;;;;15.03;10.03;;;10.40;1.00;;;;;;6143488;23;20353;-90
2021/12/14 13:03:09;;;;;;;14.47;11.00;;;10.30;1.00;;;;;;6135506;23;20396;-88
2021/12/14 13:05:42;;;;;;;14.83;11.40;;;10.30;1.00;;;;;;6105800;23;20404;-87
2021/12/14 13:08:24;;;;;;;21.80;13.87;;;10.30;1.00;;;;;;6138487;23;20399;-88
2021/12/14 13:10:55;;;;;;;13.07;10.50;;;10.30;1.00;;;;;;6141911;23;20349;-87
2021/12/14 13:13:29;;;;;;;15.60;11.73;;;10.30;1.00;;;;;;6148088;23;20960;-91
2021/12/14 13:16:06;;;;;;;15.30;11.13;;;10.40;1.00;;;;;;6142318;23;20474;-87
2021/12/14 13:18:38;;;;;;;21.97;12.97;;;10.40;1.00;;;;;;6141284;23;20470;-89
2021/12/14 13:21:12;;;;;;;21.17;12.20;;;10.30;1.00;;;;;;6140321;23;20352;-89
2021/12/14 13:23:51;;;;;;;14.40;12.20;;;10.30;1.00;;;;;;6138251;23;20400;-89
2021/12/14 13:26:50;;;;;;;16.93;12.50;;;10.20;1.00;;;;;;6155250;23;20339;-88
2021/12/14 13:29:26;;;;;;;14.10;10.97;;;10.10;1.00;;;;;;6012073;23;20506;-87